»·PEaware :: DCM2450 KPSP-KSEZ

DCM2450 :: KPSP-KSEZ

FLIGHT INFORMATION

Flight Status: Arrived
Operator: Unknown
More flights by this operator :: More flights under this callsign
Pilot: Henderson P. (1210)
Aircraft: AIRBUS A319
(A319)
More flights by this aircraft type
Origin: KPSP Palm Springs Intl
United States
Destination: KSEZ Sedona
United States
More flights between these airports :: More routes between these airports
Route: TRM6 TRM J78 DRK V264 JUWSO
File this flight plan on PilotEdge
Remarks:
Altitude:
(Current/Filed)
39,000ft
Speed:
(Current/Filed)
456kts
Departed: 29-Oct-18 09:58 AM
Arrived: 29-Oct-18 10:39 AM
Distance/Time
Traveled:
242nm/0:41
Distance/Time
To Go:
Arrived

Flight Plot

Page will automatically refresh every two minutes.

Flight plan parsing failed; only flown route is shown


Map Options




Map Legend


Flown Route
Filed Route
Departure Airport
Arrival Airport
Navaid (VOR, NDB)
Fix

Horizontal Profiles

Position Reports

Time Latitude Longitude Heading Altitude Ground
Speed
29-Oct-18 09:27 33.825482 -116.509444 90 491ft 0kts
29-Oct-18 09:28 33.825482 -116.509444 90 491ft 0kts
29-Oct-18 09:28 33.825482 -116.509444 90 491ft 0kts
29-Oct-18 09:30 33.825482 -116.509444 90 491ft 0kts
29-Oct-18 09:30 33.825482 -116.509444 90 491ft 0kts
29-Oct-18 09:32 33.825482 -116.509444 90 491ft 0kts
29-Oct-18 09:32 33.825482 -116.509444 90 491ft 0kts
29-Oct-18 09:34 33.825482 -116.509444 90 491ft 0kts
29-Oct-18 09:34 33.825482 -116.509444 90 491ft 0kts
29-Oct-18 09:36 33.825482 -116.509444 90 491ft 0kts
29-Oct-18 09:36 33.825482 -116.509444 90 491ft 0kts
29-Oct-18 09:38 33.825482 -116.509444 90 491ft 0kts
29-Oct-18 09:38 33.825482 -116.509444 90 491ft 0kts
29-Oct-18 09:39 33.825482 -116.509444 90 491ft 0kts
29-Oct-18 09:40 33.825482 -116.509444 90 491ft 0kts
29-Oct-18 09:41 33.825482 -116.509444 90 491ft 0kts
29-Oct-18 09:42 33.825482 -116.509444 90 491ft 0kts
29-Oct-18 09:43 33.825482 -116.509444 90 491ft 0kts
29-Oct-18 09:44 33.825482 -116.509444 90 491ft 0kts
29-Oct-18 09:45 33.825482 -116.509444 90 491ft 0kts
29-Oct-18 09:46 33.825482 -116.509444 90 491ft 0kts
29-Oct-18 09:47 33.825482 -116.509444 90 491ft 0kts
29-Oct-18 09:48 33.825482 -116.509444 90 491ft 0kts
29-Oct-18 09:49 33.825482 -116.509444 90 491ft 0kts
29-Oct-18 09:50 33.825482 -116.509444 90 491ft 0kts
29-Oct-18 09:51 33.825482 -116.509443 90 491ft 0kts
29-Oct-18 09:52 33.825482 -116.509443 90 491ft 0kts
29-Oct-18 09:53 33.825482 -116.509442 90 491ft 0kts
29-Oct-18 09:54 33.825482 -116.509442 90 491ft 0kts
29-Oct-18 09:55 33.825354 -116.507860 92 491ft 11kts
29-Oct-18 09:56 33.824261 -116.504902 143 491ft 10kts
29-Oct-18 09:57 33.821275 -116.502238 143 491ft 16kts
29-Oct-18 09:58 33.818526 -116.499215 90 491ft 4kts
29-Oct-18 09:59 33.819145 -116.498287 318 491ft 12kts
29-Oct-18 10:00 33.841251 -116.516331 341 1952ft 182kts
29-Oct-18 10:01 33.861734 -116.460850 113 5441ft 272kts
29-Oct-18 10:02 33.817015 -116.383281 139 9247ft 298kts
29-Oct-18 10:03 33.753545 -116.309198 137 12776ft 355kts
29-Oct-18 10:04 33.676338 -116.213377 127 12966ft 424kts
29-Oct-18 10:05 33.656229 -116.076604 75 13380ft 435kts
29-Oct-18 10:06 33.700666 -115.938861 67 16494ft 451kts
29-Oct-18 10:07 33.746872 -115.795913 67 18337ft 466kts
29-Oct-18 10:08 33.794136 -115.651252 68 18888ft 470kts
29-Oct-18 10:09 33.840527 -115.505895 68 17207ft 458kts
29-Oct-18 10:10 33.886424 -115.363025 68 18145ft 466kts
29-Oct-18 10:11 33.933646 -115.215275 68 20768ft 481kts
29-Oct-18 10:41 34.851973 -111.785436 226 4789ft 10kts
29-Oct-18 10:42 34.849382 -111.788675 225 4789ft 9kts
29-Oct-18 10:43 34.849569 -111.789351 50 4789ft 3kts
29-Oct-18 10:44 34.849540 -111.789189 228 4789ft 0kts
29-Oct-18 10:45 34.849540 -111.789189 228 4789ft 0kts
29-Oct-18 10:46 34.849540 -111.789189 228 4789ft 0kts

Navigation Log

Ident Type
Flight plan parsing failed, navigation log unavailable